sensor_id;sensor_type;location;lat;lon;timestamp;temperature;humidity
68922;DHT22;55959;51.244;5.724;2022-09-29T00:01:52;12.40;68.30
68922;DHT22;55959;51.244;5.724;2022-09-29T00:04:18;12.30;68.30
68922;DHT22;55959;51.244;5.724;2022-09-29T00:06:44;12.30;68.40
68922;DHT22;55959;51.244;5.724;2022-09-29T00:09:10;12.30;68.40
68922;DHT22;55959;51.244;5.724;2022-09-29T00:11:36;12.30;68.40
68922;DHT22;55959;51.244;5.724;2022-09-29T00:14:01;12.30;68.40
68922;DHT22;55959;51.244;5.724;2022-09-29T00:16:27;12.20;68.30
68922;DHT22;55959;51.244;5.724;2022-09-29T00:18:55;12.20;68.20
68922;DHT22;55959;51.244;5.724;2022-09-29T00:21:21;12.20;68.10
68922;DHT22;55959;51.244;5.724;2022-09-29T00:23:48;12.10;68.10
68922;DHT22;55959;51.244;5.724;2022-09-29T00:26:18;12.10;68.00
68922;DHT22;55959;51.244;5.724;2022-09-29T00:28:51;12.10;68.90
68922;DHT22;55959;51.244;5.724;2022-09-29T00:31:22;12.00;67.90
68922;DHT22;55959;51.244;5.724;2022-09-29T00:33:52;12.00;68.00
68922;DHT22;55959;51.244;5.724;2022-09-29T00:36:19;12.00;68.00
68922;DHT22;55959;51.244;5.724;2022-09-29T00:38:47;12.00;68.10
68922;DHT22;55959;51.244;5.724;2022-09-29T00:41:16;11.90;68.10
68922;DHT22;55959;51.244;5.724;2022-09-29T00:46:45;11.90;68.10
68922;DHT22;55959;51.244;5.724;2022-09-29T00:52:10;11.80;68.30
68922;DHT22;55959;51.244;5.724;2022-09-29T00:54:43;11.70;68.20
68922;DHT22;55959;51.244;5.724;2022-09-29T00:57:12;11.70;68.20
68922;DHT22;55959;51.244;5.724;2022-09-29T01:00:07;11.70;68.20
68922;DHT22;55959;51.244;5.724;2022-09-29T01:02:44;11.60;68.20
68922;DHT22;55959;51.244;5.724;2022-09-29T01:05:22;11.60;68.20
68922;DHT22;55959;51.244;5.724;2022-09-29T01:07:52;11.60;68.20
68922;DHT22;55959;51.244;5.724;2022-09-29T01:10:18;11.50;68.10
68922;DHT22;55959;51.244;5.724;2022-09-29T01:12:45;11.50;68.10
68922;DHT22;55959;51.244;5.724;2022-09-29T01:15:17;11.50;68.10
68922;DHT22;55959;51.244;5.724;2022-09-29T01:17:44;11.50;68.10
68922;DHT22;55959;51.244;5.724;2022-09-29T01:20:12;11.40;67.90
68922;DHT22;55959;51.244;5.724;2022-09-29T01:32:48;11.30;68.10
68922;DHT22;55959;51.244;5.724;2022-09-29T01:35:39;11.30;68.20
68922;DHT22;55959;51.244;5.724;2022-09-29T01:41:43;11.20;68.30
68922;DHT22;55959;51.244;5.724;2022-09-29T01:44:54;11.10;68.20
68922;DHT22;55959;51.244;5.724;2022-09-29T01:47:32;11.10;68.30
68922;DHT22;55959;51.244;5.724;2022-09-29T01:50:14;11.10;68.30
68922;DHT22;55959;51.244;5.724;2022-09-29T01:52:48;11.00;68.30
68922;DHT22;55959;51.244;5.724;2022-09-29T01:55:18;11.00;68.40
68922;DHT22;55959;51.244;5.724;2022-09-29T01:57:50;10.90;68.30
68922;DHT22;55959;51.244;5.724;2022-09-29T02:00:19;11.00;68.50
68922;DHT22;55959;51.244;5.724;2022-09-29T02:08:47;10.90;68.50
68922;DHT22;55959;51.244;5.724;2022-09-29T02:11:16;10.90;68.50
68922;DHT22;55959;51.244;5.724;2022-09-29T02:13:56;10.80;68.50
68922;DHT22;55959;51.244;5.724;2022-09-29T02:16:29;10.80;68.50
68922;DHT22;55959;51.244;5.724;2022-09-29T02:19:20;10.80;68.70
68922;DHT22;55959;51.244;5.724;2022-09-29T02:21:48;10.70;68.70
68922;DHT22;55959;51.244;5.724;2022-09-29T02:24:20;10.70;68.70
68922;DHT22;55959;51.244;5.724;2022-09-29T02:26:47;10.70;68.80
68922;DHT22;55959;51.244;5.724;2022-09-29T02:29:14;10.70;68.80
68922;DHT22;55959;51.244;5.724;2022-09-29T02:31:41;10.70;68.80
68922;DHT22;55959;51.244;5.724;2022-09-29T02:34:11;10.60;68.70
68922;DHT22;55959;51.244;5.724;2022-09-29T02:45:48;10.50;68.70
68922;DHT22;55959;51.244;5.724;2022-09-29T02:51:57;10.50;68.70
68922;DHT22;55959;51.244;5.724;2022-09-29T02:54:53;10.40;68.60
68922;DHT22;55959;51.244;5.724;2022-09-29T03:00:17;10.30;68.80
68922;DHT22;55959;51.244;5.724;2022-09-29T03:02:44;10.30;68.80
68922;DHT22;55959;51.244;5.724;2022-09-29T03:05:15;10.30;68.80
68922;DHT22;55959;51.244;5.724;2022-09-29T03:07:43;10.30;68.80
68922;DHT22;55959;51.244;5.724;2022-09-29T03:10:10;10.30;68.90
68922;DHT22;55959;51.244;5.724;2022-09-29T03:12:37;10.30;68.90
68922;DHT22;55959;51.244;5.724;2022-09-29T03:15:04;10.20;68.90
68922;DHT22;55959;51.244;5.724;2022-09-29T03:17:30;10.20;68.90
68922;DHT22;55959;51.244;5.724;2022-09-29T03:19:56;10.20;68.90
68922;DHT22;55959;51.244;5.724;2022-09-29T03:22:22;10.20;68.90
68922;DHT22;55959;51.244;5.724;2022-09-29T03:24:48;10.20;68.90
68922;DHT22;55959;51.244;5.724;2022-09-29T03:27:14;10.20;68.90
68922;DHT22;55959;51.244;5.724;2022-09-29T03:29:40;10.20;68.90
68922;DHT22;55959;51.244;5.724;2022-09-29T03:32:06;10.10;68.80
68922;DHT22;55959;51.244;5.724;2022-09-29T03:34:32;10.10;68.80
68922;DHT22;55959;51.244;5.724;2022-09-29T03:36:58;10.10;68.90
68922;DHT22;55959;51.244;5.724;2022-09-29T03:39:24;10.10;68.90
68922;DHT22;55959;51.244;5.724;2022-09-29T03:41:50;10.10;68.90
68922;DHT22;55959;51.244;5.724;2022-09-29T03:44:16;10.10;68.90
68922;DHT22;55959;51.244;5.724;2022-09-29T03:46:43;10.00;69.00
68922;DHT22;55959;51.244;5.724;2022-09-29T03:49:09;10.00;68.90
68922;DHT22;55959;51.244;5.724;2022-09-29T03:51:36;10.00;69.00
68922;DHT22;55959;51.244;5.724;2022-09-29T03:54:03;10.00;69.10
68922;DHT22;55959;51.244;5.724;2022-09-29T03:56:29;9.90;69.10
68922;DHT22;55959;51.244;5.724;2022-09-29T03:58:56;9.90;69.10
68922;DHT22;55959;51.244;5.724;2022-09-29T04:01:22;9.90;69.10
68922;DHT22;55959;51.244;5.724;2022-09-29T04:03:47;9.90;69.10
68922;DHT22;55959;51.244;5.724;2022-09-29T04:06:13;9.90;69.20
68922;DHT22;55959;51.244;5.724;2022-09-29T04:08:39;9.90;69.20
68922;DHT22;55959;51.244;5.724;2022-09-29T04:11:05;9.90;69.30
68922;DHT22;55959;51.244;5.724;2022-09-29T04:13:31;9.80;69.30
68922;DHT22;55959;51.244;5.724;2022-09-29T04:16:02;9.80;69.30
68922;DHT22;55959;51.244;5.724;2022-09-29T04:18:29;9.80;69.30
68922;DHT22;55959;51.244;5.724;2022-09-29T04:20:56;9.80;69.40
68922;DHT22;55959;51.244;5.724;2022-09-29T04:23:25;9.70;69.40
68922;DHT22;55959;51.244;5.724;2022-09-29T04:25:52;9.70;69.40
68922;DHT22;55959;51.244;5.724;2022-09-29T04:28:17;9.70;69.40
68922;DHT22;55959;51.244;5.724;2022-09-29T04:30:43;9.70;69.40
68922;DHT22;55959;51.244;5.724;2022-09-29T04:33:09;9.70;69.90
68922;DHT22;55959;51.244;5.724;2022-09-29T04:35:35;9.70;69.50
68922;DHT22;55959;51.244;5.724;2022-09-29T04:38:00;9.70;69.50
68922;DHT22;55959;51.244;5.724;2022-09-29T04:40:26;9.60;69.50
68922;DHT22;55959;51.244;5.724;2022-09-29T04:42:52;9.60;69.50
68922;DHT22;55959;51.244;5.724;2022-09-29T04:45:18;9.60;69.60
68922;DHT22;55959;51.244;5.724;2022-09-29T04:47:43;9.60;69.50
68922;DHT22;55959;51.244;5.724;2022-09-29T04:50:09;9.60;69.60
68922;DHT22;55959;51.244;5.724;2022-09-29T04:52:35;9.50;69.60
68922;DHT22;55959;51.244;5.724;2022-09-29T04:55:02;9.50;69.50
68922;DHT22;55959;51.244;5.724;2022-09-29T04:57:28;9.50;69.60
68922;DHT22;55959;51.244;5.724;2022-09-29T04:59:54;9.50;69.60
68922;DHT22;55959;51.244;5.724;2022-09-29T05:02:21;9.50;69.60
68922;DHT22;55959;51.244;5.724;2022-09-29T05:04:47;9.50;69.60
68922;DHT22;55959;51.244;5.724;2022-09-29T05:07:13;9.50;69.60
68922;DHT22;55959;51.244;5.724;2022-09-29T05:09:39;9.40;69.50
68922;DHT22;55959;51.244;5.724;2022-09-29T05:12:05;9.40;69.60
68922;DHT22;55959;51.244;5.724;2022-09-29T05:14:31;9.40;69.60
68922;DHT22;55959;51.244;5.724;2022-09-29T05:16:57;9.40;69.60
68922;DHT22;55959;51.244;5.724;2022-09-29T05:19:23;9.40;69.60
68922;DHT22;55959;51.244;5.724;2022-09-29T05:21:49;9.40;69.60
68922;DHT22;55959;51.244;5.724;2022-09-29T05:24:15;9.40;69.60
68922;DHT22;55959;51.244;5.724;2022-09-29T05:26:41;9.30;69.60
68922;DHT22;55959;51.244;5.724;2022-09-29T05:29:06;9.30;69.60
68922;DHT22;55959;51.244;5.724;2022-09-29T05:31:32;9.30;69.70
68922;DHT22;55959;51.244;5.724;2022-09-29T05:33:58;9.30;69.70
68922;DHT22;55959;51.244;5.724;2022-09-29T05:36:24;9.30;69.80
68922;DHT22;55959;51.244;5.724;2022-09-29T05:38:50;9.30;69.80
68922;DHT22;55959;51.244;5.724;2022-09-29T05:41:16;9.30;69.90
68922;DHT22;55959;51.244;5.724;2022-09-29T05:43:47;9.20;70.00
68922;DHT22;55959;51.244;5.724;2022-09-29T05:46:13;9.20;70.00
68922;DHT22;55959;51.244;5.724;2022-09-29T05:48:39;9.20;70.10
68922;DHT22;55959;51.244;5.724;2022-09-29T05:51:08;9.20;70.20
68922;DHT22;55959;51.244;5.724;2022-09-29T05:53:35;9.20;70.20
68922;DHT22;55959;51.244;5.724;2022-09-29T05:56:11;9.20;70.20
68922;DHT22;55959;51.244;5.724;2022-09-29T05:58:41;9.20;70.40
68922;DHT22;55959;51.244;5.724;2022-09-29T06:01:13;9.20;70.40
68922;DHT22;55959;51.244;5.724;2022-09-29T06:03:40;9.20;70.40
68922;DHT22;55959;51.244;5.724;2022-09-29T06:06:16;9.10;70.30
68922;DHT22;55959;51.244;5.724;2022-09-29T06:08:44;9.20;70.60
68922;DHT22;55959;51.244;5.724;2022-09-29T06:11:37;9.20;70.60
68922;DHT22;55959;51.244;5.724;2022-09-29T06:14:02;9.20;70.80
68922;DHT22;55959;51.244;5.724;2022-09-29T06:16:30;9.10;70.80
68922;DHT22;55959;51.244;5.724;2022-09-29T06:18:58;9.10;70.80
68922;DHT22;55959;51.244;5.724;2022-09-29T06:21:27;9.10;70.90
68922;DHT22;55959;51.244;5.724;2022-09-29T06:23:54;9.10;71.00
68922;DHT22;55959;51.244;5.724;2022-09-29T06:26:22;9.20;71.60
68922;DHT22;55959;51.244;5.724;2022-09-29T06:28:48;9.10;71.20
68922;DHT22;55959;51.244;5.724;2022-09-29T06:31:20;9.10;71.30
68922;DHT22;55959;51.244;5.724;2022-09-29T06:33:50;9.10;71.40
68922;DHT22;55959;51.244;5.724;2022-09-29T06:36:22;9.20;71.60
68922;DHT22;55959;51.244;5.724;2022-09-29T06:39:11;9.20;71.80
68922;DHT22;55959;51.244;5.724;2022-09-29T06:41:38;9.20;72.00
68922;DHT22;55959;51.244;5.724;2022-09-29T06:44:05;9.20;72.20
68922;DHT22;55959;51.244;5.724;2022-09-29T06:46:32;9.20;72.30
68922;DHT22;55959;51.244;5.724;2022-09-29T06:48:58;9.20;72.50
68922;DHT22;55959;51.244;5.724;2022-09-29T06:51:24;9.20;73.50
68922;DHT22;55959;51.244;5.724;2022-09-29T06:53:50;9.30;72.80
68922;DHT22;55959;51.244;5.724;2022-09-29T06:56:17;9.30;73.00
68922;DHT22;55959;51.244;5.724;2022-09-29T06:58:46;9.30;73.20
68922;DHT22;55959;51.244;5.724;2022-09-29T07:01:12;9.30;73.30
68922;DHT22;55959;51.244;5.724;2022-09-29T07:03:38;9.40;73.40
68922;DHT22;55959;51.244;5.724;2022-09-29T07:06:06;9.40;73.60
68922;DHT22;55959;51.244;5.724;2022-09-29T07:08:33;9.40;73.70
68922;DHT22;55959;51.244;5.724;2022-09-29T07:11:05;9.40;73.90
68922;DHT22;55959;51.244;5.724;2022-09-29T07:13:31;9.50;74.10
68922;DHT22;55959;51.244;5.724;2022-09-29T07:16:03;9.50;74.20
68922;DHT22;55959;51.244;5.724;2022-09-29T07:18:33;9.60;74.40
68922;DHT22;55959;51.244;5.724;2022-09-29T07:21:03;9.60;75.40
68922;DHT22;55959;51.244;5.724;2022-09-29T07:23:30;9.60;74.70
68922;DHT22;55959;51.244;5.724;2022-09-29T07:25:56;9.70;74.80
68922;DHT22;55959;51.244;5.724;2022-09-29T07:28:22;9.70;74.90
68922;DHT22;55959;51.244;5.724;2022-09-29T07:30:58;9.80;75.10
68922;DHT22;55959;51.244;5.724;2022-09-29T07:33:29;9.80;75.20
68922;DHT22;55959;51.244;5.724;2022-09-29T07:35:55;9.80;75.30
68922;DHT22;55959;51.244;5.724;2022-09-29T07:38:23;9.90;75.50
68922;DHT22;55959;51.244;5.724;2022-09-29T07:40:49;9.90;75.50
68922;DHT22;55959;51.244;5.724;2022-09-29T07:43:15;10.00;75.70
68922;DHT22;55959;51.244;5.724;2022-09-29T07:45:49;10.10;75.90
68922;DHT22;55959;51.244;5.724;2022-09-29T07:48:16;10.10;75.90
68922;DHT22;55959;51.244;5.724;2022-09-29T07:50:43;10.20;76.00
68922;DHT22;55959;51.244;5.724;2022-09-29T07:53:10;10.20;76.00
68922;DHT22;55959;51.244;5.724;2022-09-29T07:55:37;10.30;76.20
68922;DHT22;55959;51.244;5.724;2022-09-29T07:58:03;10.40;76.30
68922;DHT22;55959;51.244;5.724;2022-09-29T08:00:30;10.40;76.30
68922;DHT22;55959;51.244;5.724;2022-09-29T08:03:01;10.50;76.40
68922;DHT22;55959;51.244;5.724;2022-09-29T08:05:29;10.60;76.50
68922;DHT22;55959;51.244;5.724;2022-09-29T08:07:58;10.60;76.60
68922;DHT22;55959;51.244;5.724;2022-09-29T08:10:26;10.70;76.70
68922;DHT22;55959;51.244;5.724;2022-09-29T08:12:52;10.80;76.80
68922;DHT22;55959;51.244;5.724;2022-09-29T08:15:19;10.80;76.70
68922;DHT22;55959;51.244;5.724;2022-09-29T08:17:45;10.90;76.80
68922;DHT22;55959;51.244;5.724;2022-09-29T08:20:12;11.00;76.90
68922;DHT22;55959;51.244;5.724;2022-09-29T08:22:37;11.00;76.90
68922;DHT22;55959;51.244;5.724;2022-09-29T08:25:03;11.10;76.90
68922;DHT22;55959;51.244;5.724;2022-09-29T08:27:29;11.20;77.00
68922;DHT22;55959;51.244;5.724;2022-09-29T08:29:55;11.30;77.10
68922;DHT22;55959;51.244;5.724;2022-09-29T08:32:22;11.30;77.00
68922;DHT22;55959;51.244;5.724;2022-09-29T08:34:49;11.40;77.10
68922;DHT22;55959;51.244;5.724;2022-09-29T08:37:15;11.50;77.10
68922;DHT22;55959;51.244;5.724;2022-09-29T08:39:41;11.50;77.10
68922;DHT22;55959;51.244;5.724;2022-09-29T08:42:28;11.60;77.20
68922;DHT22;55959;51.244;5.724;2022-09-29T08:45:12;11.70;77.30
68922;DHT22;55959;51.244;5.724;2022-09-29T08:47:47;11.70;77.20
68922;DHT22;55959;51.244;5.724;2022-09-29T08:50:29;11.80;77.30
68922;DHT22;55959;51.244;5.724;2022-09-29T08:53:02;11.90;78.20
68922;DHT22;55959;51.244;5.724;2022-09-29T08:55:45;11.90;77.30
68922;DHT22;55959;51.244;5.724;2022-09-29T08:58:14;12.00;77.30
68922;DHT22;55959;51.244;5.724;2022-09-29T09:00:42;12.10;77.30
68922;DHT22;55959;51.244;5.724;2022-09-29T09:17:56;12.50;77.50
68922;DHT22;55959;51.244;5.724;2022-09-29T09:23:45;12.70;77.50
68922;DHT22;55959;51.244;5.724;2022-09-29T09:26:19;12.80;77.50
68922;DHT22;55959;51.244;5.724;2022-09-29T09:29:01;12.90;77.50
68922;DHT22;55959;51.244;5.724;2022-09-29T09:37:18;13.10;77.30
68922;DHT22;55959;51.244;5.724;2022-09-29T09:42:32;13.30;77.20
68922;DHT22;55959;51.244;5.724;2022-09-29T09:45:06;13.40;77.20
68922;DHT22;55959;51.244;5.724;2022-09-29T09:47:48;13.50;77.00
68922;DHT22;55959;51.244;5.724;2022-09-29T09:50:20;13.60;77.00
68922;DHT22;55959;51.244;5.724;2022-09-29T09:52:56;13.70;76.80
68922;DHT22;55959;51.244;5.724;2022-09-29T09:55:25;13.70;76.70
68922;DHT22;55959;51.244;5.724;2022-09-29T09:58:32;13.80;76.60
68922;DHT22;55959;51.244;5.724;2022-09-29T10:01:03;13.90;76.50
68922;DHT22;55959;51.244;5.724;2022-09-29T10:03:32;14.00;76.30
68922;DHT22;55959;51.244;5.724;2022-09-29T10:05:58;14.10;76.10
68922;DHT22;55959;51.244;5.724;2022-09-29T10:08:29;14.10;75.80
68922;DHT22;55959;51.244;5.724;2022-09-29T10:11:03;14.20;75.80
68922;DHT22;55959;51.244;5.724;2022-09-29T10:13:36;14.30;75.60
68922;DHT22;55959;51.244;5.724;2022-09-29T10:16:11;14.40;75.60
68922;DHT22;55959;51.244;5.724;2022-09-29T10:18:40;14.50;75.60
68922;DHT22;55959;51.244;5.724;2022-09-29T10:21:20;14.50;75.20
68922;DHT22;55959;51.244;5.724;2022-09-29T10:23:55;14.60;75.00
68922;DHT22;55959;51.244;5.724;2022-09-29T10:29:31;14.80;74.80
68922;DHT22;55959;51.244;5.724;2022-09-29T10:32:07;14.90;74.60
68922;DHT22;55959;51.244;5.724;2022-09-29T10:34:43;15.00;74.40
68922;DHT22;55959;51.244;5.724;2022-09-29T10:37:33;15.10;74.10
68922;DHT22;55959;51.244;5.724;2022-09-29T10:42:37;15.20;73.80
68922;DHT22;55959;51.244;5.724;2022-09-29T10:47:46;15.30;73.40
68922;DHT22;55959;51.244;5.724;2022-09-29T10:50:34;15.40;73.20
68922;DHT22;55959;51.244;5.724;2022-09-29T10:53:04;15.50;73.00
68922;DHT22;55959;51.244;5.724;2022-09-29T10:55:47;15.60;72.90
68922;DHT22;55959;51.244;5.724;2022-09-29T10:58:33;15.70;72.60
68922;DHT22;55959;51.244;5.724;2022-09-29T11:01:19;15.80;72.40
68922;DHT22;55959;51.244;5.724;2022-09-29T11:03:58;15.80;72.30
68922;DHT22;55959;51.244;5.724;2022-09-29T11:06:29;15.90;72.30
68922;DHT22;55959;51.244;5.724;2022-09-29T11:09:24;16.00;72.30
68922;DHT22;55959;51.244;5.724;2022-09-29T11:11:53;16.10;71.90
68922;DHT22;55959;51.244;5.724;2022-09-29T11:17:20;16.20;71.10
68922;DHT22;55959;51.244;5.724;2022-09-29T11:20:15;16.20;70.70
68922;DHT22;55959;51.244;5.724;2022-09-29T11:22:57;16.30;70.30
68922;DHT22;55959;51.244;5.724;2022-09-29T11:31:44;16.50;69.10
68922;DHT22;55959;51.244;5.724;2022-09-29T11:43:46;16.60;68.50
68922;DHT22;55959;51.244;5.724;2022-09-29T11:46:22;16.60;68.00
68922;DHT22;55959;51.244;5.724;2022-09-29T12:00:17;16.80;67.00
68922;DHT22;55959;51.244;5.724;2022-09-29T12:14:09;17.10;66.00
68922;DHT22;55959;51.244;5.724;2022-09-29T12:16:47;17.10;65.90
68922;DHT22;55959;51.244;5.724;2022-09-29T12:19:22;17.20;65.70
68922;DHT22;55959;51.244;5.724;2022-09-29T12:21:52;17.30;65.50
68922;DHT22;55959;51.244;5.724;2022-09-29T12:27:02;17.50;65.10
68922;DHT22;55959;51.244;5.724;2022-09-29T12:29:43;17.50;64.40
68922;DHT22;55959;51.244;5.724;2022-09-29T12:32:17;17.60;64.10
68922;DHT22;55959;51.244;5.724;2022-09-29T12:34:48;17.70;64.00
68922;DHT22;55959;51.244;5.724;2022-09-29T12:37:46;17.70;62.90
68922;DHT22;55959;51.244;5.724;2022-09-29T12:40:28;17.80;61.50
68922;DHT22;55959;51.244;5.724;2022-09-29T12:45:50;17.90;60.00
68922;DHT22;55959;51.244;5.724;2022-09-29T12:51:11;18.00;59.00
68922;DHT22;55959;51.244;5.724;2022-09-29T13:03:12;18.20;57.70
68922;DHT22;55959;51.244;5.724;2022-09-29T13:08:35;18.20;56.10
68922;DHT22;55959;51.244;5.724;2022-09-29T13:11:24;18.30;55.30
68922;DHT22;55959;51.244;5.724;2022-09-29T13:28:46;18.30;55.90
68922;DHT22;55959;51.244;5.724;2022-09-29T13:31:19;18.40;55.80
68922;DHT22;55959;51.244;5.724;2022-09-29T13:33:49;18.40;55.20
68922;DHT22;55959;51.244;5.724;2022-09-29T13:36:43;18.40;55.70
68922;DHT22;55959;51.244;5.724;2022-09-29T13:39:23;18.50;55.60
68922;DHT22;55959;51.244;5.724;2022-09-29T13:41:54;18.50;54.80
68922;DHT22;55959;51.244;5.724;2022-09-29T13:44:23;18.50;54.50
68922;DHT22;55959;51.244;5.724;2022-09-29T13:46:52;18.50;54.30
68922;DHT22;55959;51.244;5.724;2022-09-29T13:51:57;18.60;53.90
68922;DHT22;55959;51.244;5.724;2022-09-29T13:55:02;18.70;53.30
68922;DHT22;55959;51.244;5.724;2022-09-29T13:57:22;18.70;52.50
68922;DHT22;55959;51.244;5.724;2022-09-29T14:05:01;18.80;51.90
68922;DHT22;55959;51.244;5.724;2022-09-29T14:07:46;18.90;50.60
68922;DHT22;55959;51.244;5.724;2022-09-29T14:16:00;18.90;51.70
68922;DHT22;55959;51.244;5.724;2022-09-29T14:18:37;19.00;52.20
68922;DHT22;55959;51.244;5.724;2022-09-29T14:21:12;19.10;52.50
68922;DHT22;55959;51.244;5.724;2022-09-29T14:23:59;19.10;51.90
68922;DHT22;55959;51.244;5.724;2022-09-29T14:26:47;19.10;51.50
68922;DHT22;55959;51.244;5.724;2022-09-29T14:29:19;19.20;51.40
68922;DHT22;55959;51.244;5.724;2022-09-29T14:31:52;19.20;50.80
68922;DHT22;55959;51.244;5.724;2022-09-29T14:34:21;19.30;50.60
68922;DHT22;55959;51.244;5.724;2022-09-29T14:36:52;19.30;50.80
68922;DHT22;55959;51.244;5.724;2022-09-29T14:39:19;19.30;50.30
68922;DHT22;55959;51.244;5.724;2022-09-29T14:41:46;19.40;50.50
68922;DHT22;55959;51.244;5.724;2022-09-29T14:44:33;19.40;50.90
68922;DHT22;55959;51.244;5.724;2022-09-29T14:53:40;19.40;50.70
68922;DHT22;55959;51.244;5.724;2022-09-29T15:02:34;19.50;50.50
68922;DHT22;55959;51.244;5.724;2022-09-29T15:05:19;19.50;50.50
68922;DHT22;55959;51.244;5.724;2022-09-29T15:07:50;19.50;50.00
68922;DHT22;55959;51.244;5.724;2022-09-29T15:10:28;19.50;49.80
68922;DHT22;55959;51.244;5.724;2022-09-29T15:13:16;19.50;50.30
68922;DHT22;55959;51.244;5.724;2022-09-29T15:15:49;19.50;50.20
68922;DHT22;55959;51.244;5.724;2022-09-29T15:18:32;19.50;50.20
68922;DHT22;55959;51.244;5.724;2022-09-29T15:21:46;19.50;49.90
68922;DHT22;55959;51.244;5.724;2022-09-29T15:24:41;19.60;50.40
68922;DHT22;55959;51.244;5.724;2022-09-29T15:27:14;19.60;50.80
68922;DHT22;55959;51.244;5.724;2022-09-29T15:29:45;19.60;51.10
68922;DHT22;55959;51.244;5.724;2022-09-29T15:32:21;19.60;51.20
68922;DHT22;55959;51.244;5.724;2022-09-29T15:34:50;19.60;51.20
68922;DHT22;55959;51.244;5.724;2022-09-29T15:37:17;19.60;51.40
68922;DHT22;55959;51.244;5.724;2022-09-29T15:39:47;19.70;50.90
68922;DHT22;55959;51.244;5.724;2022-09-29T15:42:18;19.70;50.70
68922;DHT22;55959;51.244;5.724;2022-09-29T15:45:00;19.70;51.20
68922;DHT22;55959;51.244;5.724;2022-09-29T15:47:36;19.70;51.90
68922;DHT22;55959;51.244;5.724;2022-09-29T15:50:23;19.70;50.90
68922;DHT22;55959;51.244;5.724;2022-09-29T15:52:50;19.70;50.90
68922;DHT22;55959;51.244;5.724;2022-09-29T15:55:23;19.70;50.70
68922;DHT22;55959;51.244;5.724;2022-09-29T15:57:50;19.70;50.40
68922;DHT22;55959;51.244;5.724;2022-09-29T16:05:30;19.60;48.90
68922;DHT22;55959;51.244;5.724;2022-09-29T16:08:04;19.60;49.30
68922;DHT22;55959;51.244;5.724;2022-09-29T16:13:31;19.60;50.30
68922;DHT22;55959;51.244;5.724;2022-09-29T16:16:08;19.60;50.50
68922;DHT22;55959;51.244;5.724;2022-09-29T16:21:06;19.50;51.00
68922;DHT22;55959;51.244;5.724;2022-09-29T16:24:22;19.50;51.10
68922;DHT22;55959;51.244;5.724;2022-09-29T16:26:47;19.50;51.20
68922;DHT22;55959;51.244;5.724;2022-09-29T16:29:26;19.40;51.20
68922;DHT22;55959;51.244;5.724;2022-09-29T16:31:54;19.40;51.30
68922;DHT22;55959;51.244;5.724;2022-09-29T16:36:48;19.30;51.60
68922;DHT22;55959;51.244;5.724;2022-09-29T16:39:19;19.20;51.70
68922;DHT22;55959;51.244;5.724;2022-09-29T16:41:50;19.20;52.20
68922;DHT22;55959;51.244;5.724;2022-09-29T16:44:27;19.20;52.80
68922;DHT22;55959;51.244;5.724;2022-09-29T16:49:54;19.10;53.60
68922;DHT22;55959;51.244;5.724;2022-09-29T16:52:25;19.00;53.80
68922;DHT22;55959;51.244;5.724;2022-09-29T16:55:17;19.00;53.80
68922;DHT22;55959;51.244;5.724;2022-09-29T17:00:39;18.80;54.30
68922;DHT22;55959;51.244;5.724;2022-09-29T17:03:05;18.70;54.50
68922;DHT22;55959;51.244;5.724;2022-09-29T17:05:39;18.70;54.70
68922;DHT22;55959;51.244;5.724;2022-09-29T17:08:21;18.60;54.90
68922;DHT22;55959;51.244;5.724;2022-09-29T17:10:53;18.60;55.20
68922;DHT22;55959;51.244;5.724;2022-09-29T17:13:20;18.50;55.20
68922;DHT22;55959;51.244;5.724;2022-09-29T17:15:49;18.40;55.40
68922;DHT22;55959;51.244;5.724;2022-09-29T17:18:17;18.30;55.50
68922;DHT22;55959;51.244;5.724;2022-09-29T17:20:44;18.20;55.70
68922;DHT22;55959;51.244;5.724;2022-09-29T17:23:10;18.20;55.90
68922;DHT22;55959;51.244;5.724;2022-09-29T17:25:43;18.10;55.90
68922;DHT22;55959;51.244;5.724;2022-09-29T17:28:21;18.00;56.00
68922;DHT22;55959;51.244;5.724;2022-09-29T17:30:51;18.00;56.20
68922;DHT22;55959;51.244;5.724;2022-09-29T17:33:19;17.90;56.30
68922;DHT22;55959;51.244;5.724;2022-09-29T17:35:47;17.80;56.40
68922;DHT22;55959;51.244;5.724;2022-09-29T17:38:16;17.70;56.40
68922;DHT22;55959;51.244;5.724;2022-09-29T17:40:50;17.70;56.60
68922;DHT22;55959;51.244;5.724;2022-09-29T17:43:18;17.60;56.60
68922;DHT22;55959;51.244;5.724;2022-09-29T17:45:45;17.50;56.70
68922;DHT22;55959;51.244;5.724;2022-09-29T17:48:11;17.50;57.00
68922;DHT22;55959;51.244;5.724;2022-09-29T17:50:43;17.40;57.10
68922;DHT22;55959;51.244;5.724;2022-09-29T17:53:11;17.30;57.20
68922;DHT22;55959;51.244;5.724;2022-09-29T17:55:39;17.30;58.10
68922;DHT22;55959;51.244;5.724;2022-09-29T17:58:06;17.20;57.50
68922;DHT22;55959;51.244;5.724;2022-09-29T18:00:34;17.10;57.50
68922;DHT22;55959;51.244;5.724;2022-09-29T18:03:04;17.00;57.60
68922;DHT22;55959;51.244;5.724;2022-09-29T18:05:31;17.00;57.40
68922;DHT22;55959;51.244;5.724;2022-09-29T18:07:58;16.90;57.60
68922;DHT22;55959;51.244;5.724;2022-09-29T18:10:37;16.90;57.80
68922;DHT22;55959;51.244;5.724;2022-09-29T18:13:04;16.80;57.80
68922;DHT22;55959;51.244;5.724;2022-09-29T18:15:32;16.70;58.00
68922;DHT22;55959;51.244;5.724;2022-09-29T18:18:00;16.70;58.20
68922;DHT22;55959;51.244;5.724;2022-09-29T18:20:29;16.60;58.30
68922;DHT22;55959;51.244;5.724;2022-09-29T18:22:56;16.60;58.50
68922;DHT22;55959;51.244;5.724;2022-09-29T18:25:29;16.50;58.60
68922;DHT22;55959;51.244;5.724;2022-09-29T18:27:56;16.50;58.70
68922;DHT22;55959;51.244;5.724;2022-09-29T18:32:58;16.40;58.80
68922;DHT22;55959;51.244;5.724;2022-09-29T18:35:30;16.30;58.70
68922;DHT22;55959;51.244;5.724;2022-09-29T18:37:58;16.30;59.00
68922;DHT22;55959;51.244;5.724;2022-09-29T18:40:30;16.20;59.10
68922;DHT22;55959;51.244;5.724;2022-09-29T18:42:56;16.20;59.20
68922;DHT22;55959;51.244;5.724;2022-09-29T18:45:35;16.10;59.20
68922;DHT22;55959;51.244;5.724;2022-09-29T18:48:15;16.00;59.20
68922;DHT22;55959;51.244;5.724;2022-09-29T18:50:46;16.00;59.40
68922;DHT22;55959;51.244;5.724;2022-09-29T18:53:15;15.90;59.40
68922;DHT22;55959;51.244;5.724;2022-09-29T18:55:42;15.90;59.50
68922;DHT22;55959;51.244;5.724;2022-09-29T18:58:13;15.80;59.60
68922;DHT22;55959;51.244;5.724;2022-09-29T19:00:43;15.80;59.80
68922;DHT22;55959;51.244;5.724;2022-09-29T19:03:11;15.70;59.80
68922;DHT22;55959;51.244;5.724;2022-09-29T19:05:40;15.70;59.90
68922;DHT22;55959;51.244;5.724;2022-09-29T19:08:07;15.60;60.00
68922;DHT22;55959;51.244;5.724;2022-09-29T19:10:36;15.60;60.20
68922;DHT22;55959;51.244;5.724;2022-09-29T19:13:05;15.50;60.10
68922;DHT22;55959;51.244;5.724;2022-09-29T19:15:34;15.50;60.20
68922;DHT22;55959;51.244;5.724;2022-09-29T19:18:03;15.40;60.30
68922;DHT22;55959;51.244;5.724;2022-09-29T19:20:34;15.40;60.50
68922;DHT22;55959;51.244;5.724;2022-09-29T19:23:00;15.30;60.60